Address 0x58195c07561efc5572555533cac00496f7ade196

Overview

Balance:
2.611090398037106057 BNB

Token:
My Name Tag:
Not Available

Blocks Validated:
11,232 blocks (29,243 BNB VP | View SetInfo)
Txn Hash
Block
From
To
Value [Txn Fee]
0x656e4e6c80ae95a596ed098746d666a6df45c8b6bde25c13293d45b0bebc12ff86403302021-05-07 18:20:1885 days 16 hrs ago0x5a16c4e7914c1fff01889844064f14f3c9ffbc5e IN 0x58195c07561efc5572555533cac00496f7ade1960.0001 BNB0.00021
0x0d41d984e823d62e49cd72cf4b518bbb3e75f7302f14fb0fcc9ea4fd72ab039433102992020-11-02 9:32:25272 days 1 hr ago0x58195c07561efc5572555533cac00496f7ade196OUT BSCValidatorSet0.001243838 BNB0
0x413a69a65a85604d9e21fcf4f4b6880cda959a5d158b599c9e1e38a9d7ad9eb233102662020-11-02 9:30:46272 days 1 hr ago0x58195c07561efc5572555533cac00496f7ade196OUT BSCValidatorSet0.00155262 BNB0
0x3c9e06a8a26ec25ef077f6c668b08e2357aba837e347167fb01604a380519b3c33102552020-11-02 9:30:13272 days 1 hr ago0x58195c07561efc5572555533cac00496f7ade196OUT BSCValidatorSet0.000378 BNB0
0x6d2af74abe8a10e66fcc3959df77b49423f06f3e86ff61f04bb4e0f160e0ed5e33102222020-11-02 9:28:34272 days 1 hr ago0x58195c07561efc5572555533cac00496f7ade196OUT BSCValidatorSet0.00185262 BNB0
0x3c35154917f9cdb802da1b695cba50d7fc2ecf8c34b3e6fd7eb56cd518dfbd4533102112020-11-02 9:28:01272 days 1 hr ago0x58195c07561efc5572555533cac00496f7ade196OUT BSCValidatorSet0.00119614 BNB0
0x38cf5373fcd87909befe095c196f52b8f2faa6976a16be3d389116380c3525fd33100902020-11-02 9:21:58272 days 1 hr ago0x58195c07561efc5572555533cac00496f7ade196OUT BSCValidatorSet0.00119614 BNB0
0x92f9e04d2eac6e489b95c3463f0bc44008464c1e1504f0e6691a089588c144a533100132020-11-02 9:18:07272 days 1 hr ago0x58195c07561efc5572555533cac00496f7ade196OUT BSCValidatorSet0.00460198 BNB0
0x3d158ede040aeaf911335ab14fa12679da0585046a7a6da22b3d1c2597b193ea33099912020-11-02 9:17:01272 days 1 hr ago0x58195c07561efc5572555533cac00496f7ade196OUT BSCValidatorSet0.00119614 BNB0
0xe14eb4f2770587785b1e19a02bb949eb702f68e9b456c77867de354747d10bca33099032020-11-02 9:12:37272 days 1 hr ago0x58195c07561efc5572555533cac00496f7ade196OUT BSCValidatorSet0.0039735 BNB0
0x037aea55c7d07783615cb9c496de53e98eab4c91bc233f8e23e60bdc7998583633098922020-11-02 9:12:04272 days 1 hr ago0x58195c07561efc5572555533cac00496f7ade196OUT BSCValidatorSet0.00088764 BNB0
0xca7ef459502d3447715470d44ffc6500d01e17f4af856a7208f62649c6d95de833098152020-11-02 9:08:13272 days 1 hr ago0x58195c07561efc5572555533cac00496f7ade196OUT BSCValidatorSet0.00218512 BNB0
0x64a7a9f564e10f2bd66a00e1d24d6fc0346367507c7c09eb21a8412977a5d9ea33097712020-11-02 9:06:01272 days 1 hr ago0x58195c07561efc5572555533cac00496f7ade196OUT BSCValidatorSet0.00119614 BNB0
0xd228a42b18e1c297df4731c0241863647a3373e90b41f4b7093e97e47e27ecb933097492020-11-02 9:04:55272 days 1 hr ago0x58195c07561efc5572555533cac00496f7ade196OUT BSCValidatorSet0.000378 BNB0
0x90e176726dd048b26042256c137051399afbd976a355fdc6a17094c3f7ea49c733097382020-11-02 9:04:22272 days 1 hr ago0x58195c07561efc5572555533cac00496f7ade196OUT BSCValidatorSet0.00219882 BNB0
0x4da6212ba81400e5e19439ff8f664c245e1e4722377a2cddbc27f8377824c20933097162020-11-02 9:03:16272 days 1 hr ago0x58195c07561efc5572555533cac00496f7ade196OUT BSCValidatorSet0.00118494 BNB0
0x5a53c4774726a87b24ed3064983e75cbf705de684b06f91084af60c4af33deda33096502020-11-02 8:59:58272 days 1 hr ago0x58195c07561efc5572555533cac00496f7ade196OUT BSCValidatorSet0.00187478 BNB0
0x95a8ce4630089d6dccb0b0b4f9496d5064426302ac3de59f2f6b2e098fba900233095512020-11-02 8:55:01272 days 1 hr ago0x58195c07561efc5572555533cac00496f7ade196OUT BSCValidatorSet0.00566986 BNB0
0xff90f2d49f3dbf79f739a4cbd831bec2eb1a96e9a0a2a85deeee48245289b6a133094742020-11-02 8:51:10272 days 1 hr ago0x58195c07561efc5572555533cac00496f7ade196OUT BSCValidatorSet0.00349114 BNB0
0x07fc60ab1e5bfeae10daa9bfaf18f7903d32231931371164e3f06fddcdc6751b33094522020-11-02 8:50:04272 days 1 hr ago0x58195c07561efc5572555533cac00496f7ade196OUT BSCValidatorSet0.0022757 BNB0
0xbde935e9b1a8f7dd2e1de10a04ebd18a4189ac22ad6203568425886e8a2199d933094302020-11-02 8:48:58272 days 1 hr ago0x58195c07561efc5572555533cac00496f7ade196OUT BSCValidatorSet0.00620472 BNB0
0x3b42481a4bb27588b35652dab266caa4436c621ba962b67ed5106ab0920c6f2a33093642020-11-02 8:45:40272 days 2 hrs ago0x58195c07561efc5572555533cac00496f7ade196OUT BSCValidatorSet0.03957304 BNB0
0x08a55d187094e94d937416c8304cd730de87cbabacb36d8f9fd090966633a2fc33093422020-11-02 8:44:34272 days 2 hrs ago0x58195c07561efc5572555533cac00496f7ade196OUT BSCValidatorSet0.00677912 BNB0
0x9ce0f0582329001bec1f2e56dae37e47a67e541525e36679c47ec547b23051b733093312020-11-02 8:44:01272 days 2 hrs ago0x58195c07561efc5572555533cac00496f7ade196OUT BSCValidatorSet0.0087646 BNB0
0x651af7ddc87c4c3e8a96920cf640a65cfaee4420d4fc188c7ac5bfb2aacedca933093202020-11-02 8:43:28272 days 2 hrs ago0x58195c07561efc5572555533cac00496f7ade196OUT BSCValidatorSet0.00088764 BNB0
[ Download CSV Export 
Latest 6 internal transactions
Parent Txn Hash Block From To Value
0x06e1571b24df256ccb84396a577e82325d63852b6cea8dd1772ac8ae6eec026713921942020-08-27 13:49:37338 days 20 hrs ago BSCValidatorSet0x58195c07561efc5572555533cac00496f7ade1960.054584330897106057 BNB
0x6be0a917a05dbe631f1acf69108cff35f160d7fb060baf8482affb5525637f1713899672020-08-27 11:49:27338 days 22 hrs ago BSCValidatorSet0x58195c07561efc5572555533cac00496f7ade1960.05898606714 BNB
0x6f9e516767534adcb84fec17675f9d152b04f9e591f726af42bdd8660f59e86d13095942020-08-24 12:43:05341 days 22 hrs ago TokenHub0x58195c07561efc5572555533cac00496f7ade1964,900 BNB
0xc04a5151b6079e8d71d00095dd0a01824134a6ba1e53b3de69d48377f3f2cb1012913182020-08-23 20:35:25342 days 14 hrs ago TokenHub0x58195c07561efc5572555533cac00496f7ade19630,000 BNB
0x51e37ed54bc06726b01e640a77dd2dab50c9b637d6f8dd1f06d132329b4bf89912548262020-08-22 12:09:30343 days 22 hrs ago TokenHub0x58195c07561efc5572555533cac00496f7ade19612,000 BNB
0x7df140a0dc83148adbbee9554fc18e1ea460c8649d5e1f41f97f3f140368000812547972020-08-22 12:08:03343 days 22 hrs ago TokenHub0x58195c07561efc5572555533cac00496f7ade196100 BNB
[ Download CSV Export 
Loading

Contract Name:
0 BNB

Compiler Version
0

Optimization Enabled:
0 BNB

Other Settings:
-NA-

 Latest 25 blocks (From a total of 11,232 blocks with 110,884.99 BNB in fees)

Block Transaction Gas Used Reward
33104092020-11-02 9:37:55272 days 1 hr ago00 (0.00%)
0 BNB
33103982020-11-02 9:37:22272 days 1 hr ago00 (0.00%)
0 BNB
33103872020-11-02 9:36:49272 days 1 hr ago00 (0.00%)
0 BNB
33103762020-11-02 9:36:16272 days 1 hr ago00 (0.00%)
0 BNB
33103652020-11-02 9:35:43272 days 1 hr ago00 (0.00%)
0 BNB
33103542020-11-02 9:35:10272 days 1 hr ago00 (0.00%)
0 BNB
33103432020-11-02 9:34:37272 days 1 hr ago00 (0.00%)
0 BNB
33103322020-11-02 9:34:04272 days 1 hr ago00 (0.00%)
0 BNB
33103212020-11-02 9:33:31272 days 1 hr ago00 (0.00%)
0 BNB
33103102020-11-02 9:32:58272 days 1 hr ago00 (0.00%)
0 BNB
33102992020-11-02 9:32:25272 days 1 hr ago238,232 (0.13%)
0.001243838 BNB
33102882020-11-02 9:31:52272 days 1 hr ago00 (0.00%)
0 BNB
33102772020-11-02 9:31:19272 days 1 hr ago00 (0.00%)
0 BNB
33102662020-11-02 9:30:46272 days 1 hr ago294,781 (0.32%)
0.00155262 BNB
33102552020-11-02 9:30:13272 days 1 hr ago238,150 (0.13%)
0.000378 BNB
33102442020-11-02 9:29:40272 days 1 hr ago00 (0.00%)
0 BNB
33102332020-11-02 9:29:07272 days 1 hr ago00 (0.00%)
0 BNB
33102222020-11-02 9:28:34272 days 1 hr ago2109,781 (0.37%)
0.00185262 BNB
33102112020-11-02 9:28:01272 days 1 hr ago276,957 (0.26%)
0.00119614 BNB
33102002020-11-02 9:27:28272 days 1 hr ago00 (0.00%)
0 BNB
33101892020-11-02 9:26:55272 days 1 hr ago00 (0.00%)
0 BNB
33101782020-11-02 9:26:22272 days 1 hr ago00 (0.00%)
0 BNB
33101672020-11-02 9:25:49272 days 1 hr ago00 (0.00%)
0 BNB
33101562020-11-02 9:25:16272 days 1 hr ago00 (0.00%)
0 BNB
33101452020-11-02 9:24:43272 days 1 hr ago00 (0.00%)
0 BNB

 Latest 25 Validator Set (From a total of 8278 validator set)

Age Block Fee Address BC Fee Address Voting Power Jailed Incoming
2020-11-02 12:02:00271 days 22 hrs ago33120380x58195c07561efc5572555533cac00496f7ade1960x599d1d2fa3391974018f042f0d2d119a150ae54c 29,243 BNBNo0.3560856394792 BNB
2020-11-02 12:01:00271 days 22 hrs ago33120290x58195c07561efc5572555533cac00496f7ade1960x599d1d2fa3391974018f042f0d2d119a150ae54c 29,243 BNBNo0.3560856394792 BNB
2020-11-02 12:00:00271 days 22 hrs ago33120230x58195c07561efc5572555533cac00496f7ade1960x599d1d2fa3391974018f042f0d2d119a150ae54c 29,243 BNBNo0.3560856394792 BNB
2020-11-02 11:59:00271 days 22 hrs ago33120120x58195c07561efc5572555533cac00496f7ade1960x599d1d2fa3391974018f042f0d2d119a150ae54c 29,243 BNBNo0.3560856394792 BNB
2020-11-02 11:58:00271 days 22 hrs ago33120040x58195c07561efc5572555533cac00496f7ade1960x599d1d2fa3391974018f042f0d2d119a150ae54c 29,243 BNBNo0.3560856394792 BNB
2020-11-02 11:57:00271 days 22 hrs ago33119940x58195c07561efc5572555533cac00496f7ade1960x599d1d2fa3391974018f042f0d2d119a150ae54c 29,243 BNBNo0.3560856394792 BNB
2020-11-02 11:56:00271 days 22 hrs ago33119860x58195c07561efc5572555533cac00496f7ade1960x599d1d2fa3391974018f042f0d2d119a150ae54c 29,243 BNBNo0.3560856394792 BNB
2020-11-02 11:55:00271 days 22 hrs ago33119770x58195c07561efc5572555533cac00496f7ade1960x599d1d2fa3391974018f042f0d2d119a150ae54c 29,243 BNBNo0.3560856394792 BNB
2020-11-02 11:54:00271 days 22 hrs ago33119670x58195c07561efc5572555533cac00496f7ade1960x599d1d2fa3391974018f042f0d2d119a150ae54c 29,243 BNBNo0.3560856394792 BNB
2020-11-02 11:53:00271 days 22 hrs ago33119580x58195c07561efc5572555533cac00496f7ade1960x599d1d2fa3391974018f042f0d2d119a150ae54c 29,243 BNBNo0.3560856394792 BNB
2020-11-02 11:52:00271 days 22 hrs ago33119480x58195c07561efc5572555533cac00496f7ade1960x599d1d2fa3391974018f042f0d2d119a150ae54c 29,243 BNBNo0.3560856394792 BNB
2020-11-02 11:51:00271 days 22 hrs ago33119360x58195c07561efc5572555533cac00496f7ade1960x599d1d2fa3391974018f042f0d2d119a150ae54c 29,243 BNBNo0.3560856394792 BNB
2020-11-02 11:50:00271 days 22 hrs ago33119280x58195c07561efc5572555533cac00496f7ade1960x599d1d2fa3391974018f042f0d2d119a150ae54c 29,243 BNBNo0.3560856394792 BNB
2020-11-02 11:49:00271 days 22 hrs ago33119160x58195c07561efc5572555533cac00496f7ade1960x599d1d2fa3391974018f042f0d2d119a150ae54c 29,243 BNBNo0.3560856394792 BNB
2020-11-02 11:48:00271 days 22 hrs ago33119060x58195c07561efc5572555533cac00496f7ade1960x599d1d2fa3391974018f042f0d2d119a150ae54c 29,243 BNBNo0.3560856394792 BNB
2020-11-02 11:47:00271 days 23 hrs ago33118960x58195c07561efc5572555533cac00496f7ade1960x599d1d2fa3391974018f042f0d2d119a150ae54c 29,243 BNBNo0.3560856394792 BNB
2020-11-02 11:46:00271 days 23 hrs ago33118860x58195c07561efc5572555533cac00496f7ade1960x599d1d2fa3391974018f042f0d2d119a150ae54c 29,243 BNBNo0.3560856394792 BNB
2020-11-02 11:45:00271 days 23 hrs ago33118740x58195c07561efc5572555533cac00496f7ade1960x599d1d2fa3391974018f042f0d2d119a150ae54c 29,243 BNBNo0.3560856394792 BNB
2020-11-02 11:44:00271 days 23 hrs ago33118640x58195c07561efc5572555533cac00496f7ade1960x599d1d2fa3391974018f042f0d2d119a150ae54c 29,243 BNBNo0.3560856394792 BNB
2020-11-02 11:43:00271 days 23 hrs ago33118540x58195c07561efc5572555533cac00496f7ade1960x599d1d2fa3391974018f042f0d2d119a150ae54c 29,243 BNBNo0.3560856394792 BNB
2020-11-02 11:42:00271 days 23 hrs ago33118440x58195c07561efc5572555533cac00496f7ade1960x599d1d2fa3391974018f042f0d2d119a150ae54c 29,243 BNBNo0.3560856394792 BNB
2020-11-02 11:41:00271 days 23 hrs ago33118350x58195c07561efc5572555533cac00496f7ade1960x599d1d2fa3391974018f042f0d2d119a150ae54c 29,243 BNBNo0.3560856394792 BNB
2020-11-02 11:40:00271 days 23 hrs ago33118270x58195c07561efc5572555533cac00496f7ade1960x599d1d2fa3391974018f042f0d2d119a150ae54c 29,243 BNBNo0.3560856394792 BNB
2020-11-02 11:39:00271 days 23 hrs ago33118180x58195c07561efc5572555533cac00496f7ade1960x599d1d2fa3391974018f042f0d2d119a150ae54c 29,243 BNBNo0.3560856394792 BNB
2020-11-02 11:38:00271 days 23 hrs ago33118080x58195c07561efc5572555533cac00496f7ade1960x599d1d2fa3391974018f042f0d2d119a150ae54c 29,243 BNBNo0.3560856394792 BNB
Block Uncle Number Difficulty Gas Used Reward
Loading